createdAt,value
2023-04-19T00:00:33.617Z,4
2023-04-19T00:05:49.987Z,4
2023-04-19T00:11:06.351Z,6
2023-04-19T00:16:22.748Z,4
2023-04-19T00:21:39.055Z,5
2023-04-19T00:26:55.436Z,4
2023-04-19T00:32:11.787Z,4
2023-04-19T00:37:28.172Z,4
2023-04-19T00:42:44.538Z,4
2023-04-19T00:48:00.992Z,4
2023-04-19T00:53:17.299Z,4
2023-04-19T00:58:33.679Z,4
2023-04-19T01:03:50.091Z,2
2023-04-19T01:09:06.381Z,4
2023-04-19T01:14:22.716Z,3
2023-04-19T01:19:39.085Z,2
2023-04-19T01:24:55.441Z,2
2023-04-19T01:30:11.785Z,3
2023-04-19T01:35:28.164Z,4
2023-04-19T01:40:44.516Z,3
2023-04-19T01:46:00.881Z,3
2023-04-19T01:51:17.294Z,3
2023-04-19T01:56:33.597Z,4
2023-04-19T02:01:50.233Z,4
2023-04-19T02:07:06.568Z,3
2023-04-19T02:12:22.912Z,3
2023-04-19T02:17:39.274Z,3
2023-04-19T02:22:55.599Z,3
2023-04-19T02:28:11.979Z,3
2023-04-19T02:33:28.334Z,3
2023-04-19T02:38:44.701Z,4
2023-04-19T02:44:01.060Z,4
2023-04-19T02:49:17.418Z,4
2023-04-19T02:54:33.802Z,4
2023-04-19T02:59:50.135Z,4
2023-04-19T03:05:06.512Z,4
2023-04-19T03:10:22.835Z,5
2023-04-19T03:15:39.230Z,4
2023-04-19T03:20:55.547Z,4
2023-04-19T03:26:11.931Z,3
2023-04-19T03:31:28.302Z,4
2023-04-19T03:36:44.618Z,3
2023-04-19T03:42:00.972Z,4
2023-04-19T03:47:17.336Z,4
2023-04-19T03:52:33.669Z,3
2023-04-19T03:57:50.047Z,11
2023-04-19T04:03:06.608Z,7
2023-04-19T04:08:22.770Z,9
2023-04-19T04:13:39.115Z,6
2023-04-19T04:18:55.500Z,5
2023-04-19T04:24:11.840Z,6
2023-04-19T04:29:28.356Z,5
2023-04-19T04:34:44.628Z,8
2023-04-19T04:40:01.385Z,6
2023-04-19T04:45:17.795Z,5
2023-04-19T04:50:34.110Z,10
2023-04-19T04:55:50.618Z,16
2023-04-19T05:01:07.032Z,6
2023-04-19T05:06:24.251Z,11
2023-04-19T05:11:40.416Z,12
2023-04-19T05:16:56.806Z,8
2023-04-19T05:22:13.192Z,7
2023-04-19T05:27:29.533Z,12
2023-04-19T05:32:46.028Z,13
2023-04-19T05:38:02.310Z,10
2023-04-19T05:43:18.676Z,12
2023-04-19T05:48:35.056Z,10
2023-04-19T05:53:51.437Z,13
2023-04-19T05:59:07.800Z,18
2023-04-19T06:04:24.789Z,10
2023-04-19T06:09:40.763Z,7
2023-04-19T06:14:56.904Z,6
2023-04-19T06:20:13.274Z,12
2023-04-19T06:25:29.677Z,19
2023-04-19T06:30:46.055Z,13
2023-04-19T06:36:02.417Z,10
2023-04-19T06:41:18.793Z,9
2023-04-19T06:46:35.169Z,11
2023-04-19T06:51:51.529Z,6
2023-04-19T06:57:07.895Z,9
2023-04-19T07:02:24.405Z,5
2023-04-19T07:07:40.630Z,9
2023-04-19T07:12:56.954Z,5
2023-04-19T07:18:13.304Z,5
2023-04-19T07:23:29.629Z,5
2023-04-19T07:28:46.013Z,3
2023-04-19T07:34:02.321Z,4
2023-04-19T07:39:18.649Z,2
2023-04-19T07:44:35.019Z,2
2023-04-19T07:49:51.336Z,1
2023-04-19T07:55:07.726Z,2
2023-04-19T08:00:24.052Z,2
2023-04-19T08:05:40.490Z,2
2023-04-19T08:10:56.722Z,2
2023-04-19T08:16:52.041Z,1
2023-04-19T08:21:38.454Z,1
2023-04-19T08:26:46.465Z,2
2023-04-19T08:32:02.854Z,1
2023-04-19T08:37:19.163Z,2
2023-04-19T08:42:37.032Z,9
2023-04-19T08:48:00.668Z,2
2023-04-19T08:58:36.527Z,3
2023-04-19T09:03:55.497Z,2
2023-04-19T09:08:57.203Z,1
2023-04-19T09:14:13.542Z,2
2023-04-19T09:19:30.089Z,3
2023-04-19T09:30:02.572Z,1
2023-04-19T09:35:18.862Z,2
2023-04-19T09:40:35.159Z,3
2023-04-19T09:45:51.487Z,1
2023-04-19T09:51:10.706Z,3
2023-04-19T09:56:24.130Z,0
2023-04-19T10:01:40.479Z,1
2023-04-19T10:07:24.509Z,2
2023-04-19T10:12:32.386Z,2
2023-04-19T10:17:30.353Z,2
2023-04-19T10:22:46.501Z,4
2023-04-19T10:28:02.855Z,2
2023-04-19T10:33:19.221Z,1
2023-04-19T10:38:35.537Z,1
2023-04-19T10:43:51.880Z,1
2023-04-19T10:49:08.202Z,1
2023-04-19T10:54:24.567Z,2
2023-04-19T10:59:40.902Z,3
2023-04-19T11:04:57.226Z,1
2023-04-19T11:10:13.627Z,2
2023-04-19T11:15:29.873Z,2
2023-04-19T11:20:46.160Z,4
2023-04-19T11:26:02.482Z,2
2023-04-19T11:31:18.848Z,3
2023-04-19T11:36:35.060Z,4
2023-04-19T11:41:51.348Z,4
2023-04-19T11:47:07.693Z,3
2023-04-19T11:52:23.904Z,3
2023-04-19T11:57:41.613Z,3
2023-04-19T12:02:56.702Z,3
2023-04-19T12:08:12.798Z,2
2023-04-19T12:13:29.087Z,2
2023-04-19T12:18:45.486Z,2
2023-04-19T12:24:01.782Z,2
2023-04-19T12:29:18.233Z,2
2023-04-19T12:34:34.412Z,2
2023-04-19T12:39:50.714Z,3
2023-04-19T12:45:07.064Z,3
2023-04-19T12:50:23.422Z,6
2023-04-19T12:55:39.760Z,4
2023-04-19T13:00:56.076Z,7
2023-04-19T13:06:12.450Z,6
2023-04-19T13:11:28.793Z,5
2023-04-19T13:16:45.144Z,4
2023-04-19T13:22:01.487Z,5
2023-04-19T13:27:17.839Z,4
2023-04-19T13:32:34.186Z,3
2023-04-19T13:37:50.526Z,3
2023-04-19T13:43:06.871Z,2
2023-04-19T13:48:23.218Z,3
2023-04-19T13:53:39.580Z,2
2023-04-19T13:58:55.932Z,2
2023-04-19T14:04:12.675Z,2
2023-04-19T14:09:28.630Z,6
2023-04-19T14:14:44.993Z,3
2023-04-19T14:20:01.332Z,2
2023-04-19T14:25:17.686Z,3
2023-04-19T14:30:34.030Z,2
2023-04-19T14:35:50.375Z,4
2023-04-19T14:41:06.713Z,3
2023-04-19T14:46:23.204Z,4
2023-04-19T14:51:39.404Z,3
2023-04-19T14:56:55.764Z,3
2023-04-19T15:02:12.146Z,3
2023-04-19T15:07:28.451Z,3
2023-04-19T15:12:44.816Z,3
2023-04-19T15:18:01.198Z,3
2023-04-19T15:23:17.533Z,3
2023-04-19T15:28:33.889Z,4
2023-04-19T15:33:50.232Z,3
2023-04-19T15:39:06.763Z,3
2023-04-19T15:44:23.114Z,3
2023-04-19T15:49:39.523Z,4
2023-04-19T15:54:55.910Z,5
2023-04-19T16:00:12.237Z,3
2023-04-19T16:05:29.490Z,4
2023-04-19T16:10:45.798Z,5
2023-04-19T16:16:02.123Z,4
2023-04-19T16:21:18.440Z,8
2023-04-19T16:26:35.040Z,14
2023-04-19T16:31:52.256Z,10
2023-04-19T16:37:08.084Z,7
2023-04-19T16:42:24.440Z,4
2023-04-19T16:47:40.868Z,7
2023-04-19T16:52:57.206Z,8
2023-04-19T16:58:13.600Z,6
2023-04-19T17:03:30.108Z,10
2023-04-19T17:08:46.352Z,5
2023-04-19T17:14:02.737Z,3
2023-04-19T17:19:19.247Z,3
2023-04-19T17:24:35.498Z,3
2023-04-19T17:29:51.859Z,2
2023-04-19T17:35:08.251Z,3
2023-04-19T17:40:24.591Z,3
2023-04-19T17:45:40.967Z,3
2023-04-19T17:50:57.332Z,3
2023-04-19T17:56:13.721Z,3
2023-04-19T18:01:30.113Z,4
2023-04-19T18:06:46.492Z,14
2023-04-19T18:12:02.839Z,9
2023-04-19T18:17:19.217Z,16
2023-04-19T18:22:35.594Z,9
2023-04-19T18:27:51.978Z,9
2023-04-19T18:33:08.380Z,9
2023-04-19T18:38:24.711Z,10
2023-04-19T18:43:47.987Z,8
2023-04-19T18:48:57.479Z,8
2023-04-19T18:54:13.811Z,9
2023-04-19T18:59:30.176Z,9
2023-04-19T19:04:55.866Z,8
2023-04-19T19:10:10.367Z,6
2023-04-19T19:15:19.929Z,10
2023-04-19T19:20:36.303Z,7
2023-04-19T19:25:52.682Z,11
2023-04-19T19:31:09.118Z,10
2023-04-19T19:36:25.465Z,29
2023-04-19T19:46:58.268Z,16
2023-04-19T19:52:14.596Z,18
2023-04-19T19:58:19.081Z,16
2023-04-19T20:08:05.653Z,13
2023-04-19T20:13:20.110Z,13
2023-04-19T20:18:36.479Z,12
2023-04-19T20:23:52.878Z,11
2023-04-19T20:29:09.212Z,10
2023-04-19T20:34:25.593Z,8
2023-04-19T20:39:41.961Z,13
2023-04-19T20:44:58.345Z,9
2023-04-19T20:50:14.710Z,11
2023-04-19T20:55:31.813Z,9
2023-04-19T21:00:48.184Z,10
2023-04-19T21:06:04.532Z,11
2023-04-19T21:11:20.902Z,12
2023-04-19T21:16:37.287Z,15
2023-04-19T21:21:53.666Z,12
2023-04-19T21:27:10.040Z,12
2023-04-19T21:32:26.428Z,12
2023-04-19T21:37:42.841Z,19
2023-04-19T21:42:59.190Z,21
2023-04-19T21:48:15.557Z,17
2023-04-19T21:53:31.944Z,15
2023-04-19T21:58:48.337Z,14
2023-04-19T22:04:04.875Z,16
2023-04-19T22:09:21.115Z,14
2023-04-19T22:14:37.477Z,12
2023-04-19T22:19:54.434Z,16
2023-04-19T22:25:10.814Z,11
2023-04-19T22:30:27.184Z,10
2023-04-19T22:35:43.546Z,12
2023-04-19T22:40:59.928Z,10
2023-04-19T22:46:16.318Z,10
2023-04-19T22:51:32.652Z,10
2023-04-19T22:56:49.035Z,9
2023-04-19T23:02:05.456Z,10
2023-04-19T23:07:21.837Z,10
2023-04-19T23:12:38.760Z,12
2023-04-19T23:17:55.110Z,16
2023-04-19T23:23:11.449Z,20
2023-04-19T23:28:27.837Z,12
2023-04-19T23:33:44.272Z,9
2023-04-19T23:39:00.575Z,10
2023-04-19T23:44:16.947Z,7
2023-04-19T23:49:33.302Z,10
2023-04-19T23:54:49.693Z,9
